Time;durP1;ratioP1;P1;durP2;ratioP2;P2;SDS_P1;SDS_P2;PMS_P1;PMS_P2;Temp;Humidity;BMP_temperature;BMP_pressure;BME280_temperature;BME280_humidity;BME280_pressure;Samples;Min_cycle;Max_cycle;Signal;HPM_P1;HPM_P2
2022/09/18 00:01:38;;;;;;;4.90;0.80;;;;;;;12.30;100.00;101451.66;2614795;31;20023;-52
2022/09/18 00:04:09;;;;;;;3.13;0.47;;;;;;;12.31;100.00;101452.50;2613139;31;20057;-56
2022/09/18 00:06:39;;;;;;;4.13;0.80;;;;;;;12.31;100.00;101452.50;2614996;36;20073;-51
2022/09/18 00:09:10;;;;;;;3.63;0.70;;;;;;;12.32;100.00;101452.38;2614507;36;20141;-54
2022/09/18 00:11:41;;;;;;;1.35;0.63;;;;;;;12.32;100.00;101449.66;2614091;36;20030;-51
2022/09/18 00:14:11;;;;;;;3.30;0.70;;;;;;;12.30;100.00;101456.22;2614244;36;20030;-52
2022/09/18 00:16:43;;;;;;;3.88;0.80;;;;;;;12.32;100.00;101448.81;2614588;36;20038;-53
2022/09/18 00:19:12;;;;;;;3.70;0.77;;;;;;;12.43;100.00;101451.47;2615320;31;20035;-54
2022/09/18 00:21:42;;;;;;;;;;;;;;;12.44;100.00;101450.47;2614772;36;20038;-49
2022/09/18 00:24:10;;;;;;;3.92;0.75;;;;;;;12.38;100.00;101459.09;2614248;36;19951;-51
2022/09/18 00:26:39;;;;;;;2.73;0.57;;;;;;;12.47;100.00;101452.91;2615081;31;20022;-51
2022/09/18 00:29:08;;;;;;;1.77;0.55;;;;;;;12.43;100.00;101463.09;2613759;36;20095;-51
2022/09/18 00:31:37;;;;;;;3.33;0.88;;;;;;;12.41;100.00;101454.28;2614953;36;20426;-49
2022/09/18 00:34:12;;;;;;;1.98;0.60;;;;;;;12.42;100.00;101463.22;2614954;36;20034;-49
2022/09/18 00:36:41;;;;;;;2.67;0.70;;;;;;;12.43;100.00;101462.25;2614762;36;20026;-53
2022/09/18 00:39:09;;;;;;;1.50;0.70;;;;;;;12.45;100.00;101457.56;2613224;36;20038;-52
2022/09/18 00:41:40;;;;;;;3.95;0.93;;;;;;;12.48;100.00;101460.00;2614860;36;20046;-50
2022/09/18 00:44:35;;;;;;;3.08;1.13;;;;;;;12.47;100.00;101463.72;2614887;36;20035;-53
2022/09/18 00:47:09;;;;;;;3.35;0.93;;;;;;;12.53;100.00;101459.59;2614613;36;20555;-51
2022/09/18 00:49:44;;;;;;;2.40;0.73;;;;;;;12.53;100.00;101459.59;2614541;36;20057;-49
2022/09/18 00:52:13;;;;;;;3.25;0.98;;;;;;;12.57;100.00;101461.91;2615622;31;20549;-55
2022/09/18 00:54:45;;;;;;;4.57;1.17;;;;;;;12.60;100.00;101458.94;2614081;31;20042;-53
2022/09/18 00:57:17;;;;;;;1.45;0.60;;;;;;;12.53;100.00;101452.38;2614857;36;20039;-54
2022/09/18 00:59:49;;;;;;;3.83;0.68;;;;;;;12.51;100.00;101453.47;2614633;36;20065;-52
2022/09/18 01:02:18;;;;;;;3.15;1.10;;;;;;;12.47;100.00;101457.44;2614624;36;20030;-54
2022/09/18 01:04:50;;;;;;;4.38;0.85;;;;;;;12.51;100.00;101459.72;2615624;36;20038;-51
2022/09/18 01:07:28;;;;;;;2.65;0.65;;;;;;;12.50;100.00;101458.03;2615005;36;20130;-54
2022/09/18 01:10:10;;;;;;;4.20;0.75;;;;;;;12.52;100.00;101457.91;2615367;36;20120;-56
2022/09/18 01:12:45;;;;;;;4.85;0.95;;;;;;;12.58;100.00;101460.91;2615767;36;20042;-53
2022/09/18 01:15:20;;;;;;;3.25;0.77;;;;;;;12.68;100.00;101454.72;2615136;36;20431;-51
2022/09/18 01:17:58;;;;;;;8.75;2.75;;;;;;;12.70;100.00;101458.13;2615360;36;20034;-51
2022/09/18 01:20:56;;;;;;;4.20;0.90;;;;;;;12.68;100.00;101460.97;2614574;36;20554;-49
2022/09/18 01:23:57;;;;;;;3.67;1.25;;;;;;;12.65;100.00;101455.81;2615280;36;20038;-54
2022/09/18 01:26:49;;;;;;;6.38;1.17;;;;;;;12.62;100.00;101462.34;2614749;36;20041;-53
2022/09/18 01:29:25;;;;;;;6.63;0.90;;;;;;;12.60;100.00;101468.88;2615677;31;20030;-57
2022/09/18 01:31:58;;;;;;;7.07;1.25;;;;;;;12.55;100.00;101461.16;2614032;36;20037;-53
2022/09/18 01:34:32;;;;;;;3.05;0.90;;;;;;;12.57;100.00;101459.22;2615178;31;20053;-53
2022/09/18 01:37:08;;;;;;;3.33;1.00;;;;;;;12.60;100.00;101469.75;2615611;36;20027;-51
2022/09/18 01:39:40;;;;;;;1.70;0.90;;;;;;;12.60;100.00;101456.25;2614866;36;20085;-54
2022/09/18 01:42:10;;;;;;;2.25;1.00;;;;;;;12.57;100.00;101455.63;2615538;36;20038;-55
2022/09/18 01:44:45;;;;;;;9.40;1.38;;;;;;;12.60;100.00;101453.53;2616165;36;20503;-52
2022/09/18 01:47:17;;;;;;;5.78;0.88;;;;;;;12.61;100.00;101447.13;2615964;36;20563;-55
2022/09/18 01:49:49;;;;;;;7.07;1.25;;;;;;;12.63;100.00;101452.38;2616484;31;20498;-54
2022/09/18 01:52:23;;;;;;;5.78;1.00;;;;;;;12.65;100.00;101450.44;2615599;31;20610;-54
2022/09/18 01:54:54;;;;;;;4.30;1.80;;;;;;;12.63;100.00;101452.38;2615699;36;20119;-54
2022/09/18 01:57:25;;;;;;;7.07;1.25;;;;;;;12.58;100.00;101443.84;2616250;36;20065;-53
2022/09/18 02:00:02;;;;;;;2.85;1.00;;;;;;;12.66;100.00;101451.28;2615363;36;20597;-55
2022/09/18 02:02:36;;;;;;;7.88;1.23;;;;;;;12.61;100.00;101447.13;2615294;36;20516;-54
2022/09/18 02:05:09;;;;;;;2.28;0.80;;;;;;;12.66;100.00;101446.75;2615560;31;20037;-55
2022/09/18 02:07:47;;;;;;;2.83;0.95;;;;;;;12.60;100.00;101448.13;2615307;36;20023;-55
2022/09/18 02:10:16;;;;;;;5.60;1.52;;;;;;;12.61;100.00;101444.44;2615468;54;20038;-55
2022/09/18 02:12:46;;;;;;;7.30;1.60;;;;;;;12.56;100.00;101430.50;2615346;31;20026;-53
2022/09/18 02:15:18;;;;;;;4.93;1.10;;;;;;;12.60;100.00;101436.47;2614478;31;20591;-51
2022/09/18 02:17:51;;;;;;;3.95;1.00;;;;;;;12.61;100.00;101436.31;2616050;36;20053;-54
2022/09/18 02:20:25;;;;;;;5.40;1.00;;;;;;;12.60;100.00;101447.25;2614691;36;20034;-53
2022/09/18 02:22:57;;;;;;;5.10;0.80;;;;;;;12.56;100.00;101441.28;2615411;36;20026;-47
2022/09/18 02:25:30;;;;;;;7.25;1.10;;;;;;;12.58;100.00;101443.84;2615126;36;20027;-50
2022/09/18 02:27:59;;;;;;;2.95;0.90;;;;;;;12.56;100.00;101444.00;2615287;36;20022;-51
2022/09/18 02:30:31;;;;;;;3.40;1.02;;;;;;;12.61;100.00;101433.63;2615702;36;20503;-55
2022/09/18 02:32:59;;;;;;;3.72;1.08;;;;;;;12.69;100.00;101440.19;2615619;36;20053;-50
2022/09/18 02:35:39;;;;;;;4.32;0.95;;;;;;;12.61;100.00;101439.03;2615224;36;20053;-55
2022/09/18 02:38:18;;;;;;;6.15;1.58;;;;;;;12.66;100.00;101429.66;2615577;36;20045;-56
2022/09/18 02:40:57;;;;;;;5.53;0.77;;;;;;;12.55;100.00;101426.06;2615494;36;20038;-53
2022/09/18 02:43:39;;;;;;;4.45;1.00;;;;;;;12.64;100.00;101420.84;2614044;36;20061;-51
2022/09/18 02:46:22;;;;;;;8.95;1.00;;;;;;;12.64;100.00;101423.56;2615389;36;20038;-49
2022/09/18 02:49:03;;;;;;;5.53;1.00;;;;;;;12.62;100.00;101412.91;2614887;36;20030;-50
2022/09/18 02:51:37;;;;;;;5.30;1.00;;;;;;;12.57;100.00;101410.59;2607215;36;20045;-53
2022/09/18 02:54:09;;;;;;;4.85;0.93;;;;;;;12.54;100.00;101410.84;2601178;31;20496;-49
2022/09/18 02:56:43;;;;;;;3.58;0.80;;;;;;;12.46;100.00;101410.69;2615668;36;20026;-50
2022/09/18 02:59:16;;;;;;;3.65;0.80;;;;;;;12.45;100.00;101406.28;2615751;36;20035;-54
2022/09/18 03:01:48;;;;;;;2.13;0.70;;;;;;;12.42;100.00;101406.53;2615301;36;20042;-53
2022/09/18 03:04:21;;;;;;;4.55;0.95;;;;;;;12.38;100.00;101410.50;2614446;36;20027;-51
2022/09/18 03:06:49;;;;;;;6.35;1.00;;;;;;;12.46;100.00;101413.38;2615664;36;20042;-51
2022/09/18 03:09:18;;;;;;;4.55;0.95;;;;;;;12.39;100.00;101413.06;2614255;31;20041;-52
2022/09/18 03:11:46;;;;;;;3.77;0.87;;;;;;;12.39;100.00;101421.16;2615297;36;20039;-51
2022/09/18 03:14:15;;;;;;;2.40;1.40;;;;;;;12.38;100.00;101418.59;2615335;36;20299;-51
2022/09/18 03:16:43;;;;;;;8.23;1.10;;;;;;;12.37;100.00;101419.59;2615929;31;20303;-52
2022/09/18 03:19:14;;;;;;;3.20;1.10;;;;;;;12.34;100.00;101414.47;2615142;36;20085;-49
2022/09/18 03:21:43;;;;;;;2.50;0.90;;;;;;;12.32;100.00;101405.63;2615750;36;20022;-48
2022/09/18 03:24:11;;;;;;;3.17;0.73;;;;;;;12.22;100.00;101411.84;2613866;36;20564;-53
2022/09/18 03:26:39;;;;;;;3.35;0.90;;;;;;;12.27;100.00;101408.75;2615426;31;20045;-52
2022/09/18 03:29:10;;;;;;;2.73;0.80;;;;;;;12.31;100.00;101398.53;2616364;36;20031;-52
2022/09/18 03:31:38;;;;;;;6.93;1.00;;;;;;;12.30;100.00;101400.38;2615519;36;20022;-51
2022/09/18 03:34:07;;;;;;;2.60;0.75;;;;;;;12.32;100.00;101403.78;2615129;31;20034;-53
2022/09/18 03:36:38;;;;;;;7.65;1.05;;;;;;;12.39;100.00;101396.03;2615225;36;20054;-52
2022/09/18 03:39:07;;;;;;;3.53;0.70;;;;;;;12.34;100.00;101398.28;2614834;36;20042;-50
2022/09/18 03:41:35;;;;;;;7.13;1.02;;;;;;;12.31;100.00;101390.41;2614969;36;20122;-53
2022/09/18 03:44:04;;;;;;;4.30;0.90;;;;;;;12.25;100.00;101390.00;2614604;36;20038;-49
2022/09/18 03:46:32;;;;;;;7.47;1.00;;;;;;;12.20;100.00;101391.38;2614460;31;20512;-50
2022/09/18 03:49:00;;;;;;;6.03;1.00;;;;;;;12.15;100.00;101394.47;2614411;36;20030;-49
2022/09/18 03:51:28;;;;;;;3.50;1.00;;;;;;;12.20;100.00;101403.00;2614523;36;20042;-50
2022/09/18 03:54:00;;;;;;;4.95;0.70;;;;;;;12.17;100.00;101392.47;2614193;36;20054;-55
2022/09/18 03:56:28;;;;;;;4.07;1.00;;;;;;;12.17;100.00;101397.03;2614620;36;20038;-51
2022/09/18 03:58:56;;;;;;;5.13;1.23;;;;;;;12.20;100.00;101391.38;2615249;36;20023;-50
2022/09/18 04:01:25;;;;;;;8.93;1.02;;;;;;;12.16;100.00;101390.81;2613808;36;20030;-50
2022/09/18 04:03:54;;;;;;;6.43;0.90;;;;;;;12.12;100.00;101394.75;2615538;36;20756;-51
2022/09/18 04:06:25;;;;;;;8.13;1.25;;;;;;;12.15;100.00;101399.03;2615098;36;20174;-49
2022/09/18 04:08:53;;;;;;;3.38;1.00;;;;;;;12.14;100.00;101398.16;2614364;36;20468;-51
2022/09/18 04:11:24;;;;;;;3.47;1.00;;;;;;;12.19;100.00;101401.31;2614998;36;20030;-50
2022/09/18 04:13:52;;;;;;;2.45;0.77;;;;;;;12.24;100.00;101398.22;2615230;36;20053;-49
2022/09/18 04:16:21;;;;;;;5.30;1.38;;;;;;;12.35;100.00;101394.56;2615150;31;20036;-51
2022/09/18 04:18:49;;;;;;;6.30;1.10;;;;;;;12.36;100.00;101402.53;2612998;36;20030;-51
2022/09/18 04:21:17;;;;;;;6.60;1.17;;;;;;;12.43;100.00;101394.75;2615167;36;20046;-51
2022/09/18 04:23:46;;;;;;;5.72;0.90;;;;;;;12.34;100.00;101387.47;2613918;36;20034;-52
2022/09/18 04:26:14;;;;;;;6.47;1.90;;;;;;;12.37;100.00;101390.75;2615338;31;20031;-54
2022/09/18 04:28:45;;;;;;;5.38;1.25;;;;;;;12.32;100.00;101389.44;2614867;36;20045;-50
2022/09/18 04:31:13;;;;;;;5.57;1.00;;;;;;;12.27;100.00;101389.84;2613219;36;20043;-53
2022/09/18 04:33:41;;;;;;;4.45;1.00;;;;;;;12.25;100.00;101400.78;2614152;36;20026;-51
2022/09/18 04:36:10;;;;;;;3.45;1.00;;;;;;;12.38;100.00;101403.28;2614906;31;20127;-50
2022/09/18 04:38:38;;;;;;;2.75;0.68;;;;;;;12.39;100.00;101386.06;2614778;36;20556;-50
2022/09/18 04:41:07;;;;;;;1.85;0.93;;;;;;;12.43;100.00;101386.66;2614849;36;20038;-52
2022/09/18 04:43:35;;;;;;;2.25;0.93;;;;;;;12.39;100.00;101386.06;2614780;36;20037;-52
2022/09/18 04:46:07;;;;;;;3.67;1.17;;;;;;;12.33;100.00;101380.38;2614290;31;20067;-49
2022/09/18 04:48:35;;;;;;;6.97;1.20;;;;;;;12.27;100.00;101379.91;2614811;36;20057;-50
2022/09/18 04:51:04;;;;;;;3.72;0.82;;;;;;;12.27;100.00;101384.44;2613075;36;20065;-55
2022/09/18 04:53:34;;;;;;;7.78;1.33;;;;;;;12.35;100.00;101389.16;2608977;36;20039;-48
2022/09/18 04:56:02;;;;;;;3.88;1.17;;;;;;;12.30;100.00;101383.34;2613939;36;20031;-50
2022/09/18 04:58:31;;;;;;;6.15;1.02;;;;;;;12.33;100.00;101391.16;2614424;36;20053;-53
2022/09/18 05:00:59;;;;;;;6.10;1.02;;;;;;;12.29;100.00;101384.31;2613022;36;20412;-49
2022/09/18 05:03:30;;;;;;;5.35;0.80;;;;;;;12.21;100.00;101382.28;2613737;36;20029;-50
2022/09/18 05:05:58;;;;;;;4.68;0.90;;;;;;;12.30;100.00;101378.78;2615648;36;20567;-49
2022/09/18 05:08:26;;;;;;;3.92;0.80;;;;;;;12.31;100.00;101382.31;2615267;31;20041;-52
2022/09/18 05:10:55;;;;;;;4.30;2.05;;;;;;;12.20;100.00;101376.03;2614718;31;20070;-50
2022/09/18 05:13:23;;;;;;;3.83;0.90;;;;;;;12.17;100.00;101379.00;2615633;36;20594;-53
2022/09/18 05:15:55;;;;;;;6.97;1.17;;;;;;;12.16;100.00;101374.59;2616404;31;20505;-53
2022/09/18 05:18:24;;;;;;;4.50;1.00;;;;;;;12.20;100.00;101376.03;2615113;31;20089;-49
2022/09/18 05:20:55;;;;;;;4.97;1.03;;;;;;;12.20;100.00;101375.19;2614933;36;20026;-50
2022/09/18 05:23:24;;;;;;;3.50;0.95;;;;;;;12.22;100.00;101383.97;2613614;36;20310;-51
2022/09/18 05:25:52;;;;;;;4.50;0.88;;;;;;;12.25;100.00;101381.03;2614638;36;20031;-50
2022/09/18 05:28:20;;;;;;;2.55;0.93;;;;;;;12.34;100.00;101382.94;2614196;36;20069;-53
2022/09/18 05:30:49;;;;;;;4.13;1.00;;;;;;;12.32;100.00;101386.75;2606975;31;20568;-52
2022/09/18 05:33:17;;;;;;;6.53;1.33;;;;;;;12.28;100.00;101378.06;2615180;36;20053;-50
2022/09/18 05:35:45;;;;;;;3.40;1.20;;;;;;;12.25;100.00;101383.75;2614787;36;20468;-49
2022/09/18 05:38:16;;;;;;;2.45;0.80;;;;;;;12.20;100.00;101378.72;2614823;36;20035;-52
2022/09/18 05:40:44;;;;;;;5.43;1.10;;;;;;;12.35;100.00;101389.16;2614832;36;20027;-50
2022/09/18 05:43:13;;;;;;;5.47;1.30;;;;;;;12.34;100.00;101384.78;2615926;36;20155;-50
2022/09/18 05:45:41;;;;;;;4.05;0.70;;;;;;;12.31;100.00;101390.41;2615942;36;20038;-51
2022/09/18 05:48:11;;;;;;;2.00;0.90;;;;;;;12.31;100.00;101393.13;2616074;31;20508;-49
2022/09/18 05:50:41;;;;;;;5.32;0.82;;;;;;;12.33;100.00;101386.59;2616547;31;20086;-49
2022/09/18 05:53:12;;;;;;;6.35;1.02;;;;;;;12.25;100.00;101390.00;2614685;36;20110;-53
2022/09/18 05:55:43;;;;;;;4.57;1.15;;;;;;;12.27;100.00;101379.91;2615705;36;20438;-51
2022/09/18 05:58:14;;;;;;;5.25;1.05;;;;;;;12.34;100.00;101382.09;2615962;36;20484;-53
2022/09/18 06:00:43;;;;;;;2.95;1.10;;;;;;;12.32;100.00;101381.34;2614819;36;20038;-49
2022/09/18 06:03:13;;;;;;;5.80;0.95;;;;;;;12.36;100.00;101385.50;2615222;36;20543;-52
2022/09/18 06:05:42;;;;;;;3.60;0.80;;;;;;;12.43;100.00;101387.50;2615471;36;20539;-51
2022/09/18 06:08:12;;;;;;;7.38;1.20;;;;;;;12.48;100.00;101391.66;2615853;36;20077;-50
2022/09/18 06:10:43;;;;;;;5.28;0.98;;;;;;;12.50;100.00;101390.53;2615323;36;20045;-49
2022/09/18 06:13:14;;;;;;;3.63;0.82;;;;;;;12.58;100.00;101385.28;2615064;36;20030;-49
2022/09/18 06:15:46;;;;;;;2.42;0.98;;;;;;;12.66;100.00;101397.25;2615060;36;20027;-50
2022/09/18 06:18:15;;;;;;;7.70;1.38;;;;;;;12.65;100.00;101387.44;2615856;31;20045;-48
2022/09/18 06:20:43;;;;;;;;;;;;;;;12.62;100.00;101384.03;2615669;36;20466;-49
2022/09/18 06:23:12;;;;;;;6.90;1.40;;;;;;;12.74;100.00;101383.94;2615260;36;20482;-48
2022/09/18 06:25:43;;;;;;;4.95;1.25;;;;;;;12.69;100.00;101386.19;2614555;36;20034;-57
2022/09/18 06:28:11;;;;;;;3.65;1.17;;;;;;;12.78;100.00;101385.38;2615228;36;20551;-51
2022/09/18 06:30:40;;;;;;;5.93;1.00;;;;;;;12.81;100.00;101385.09;2614432;36;20038;-50
2022/09/18 06:33:10;;;;;;;6.65;1.73;;;;;;;12.83;100.00;101380.41;2614927;36;20035;-54
2022/09/18 06:35:41;;;;;;;10.85;1.67;;;;;;;12.78;100.00;101385.38;2616304;36;20471;-53
2022/09/18 06:38:11;;;;;;;4.40;1.00;;;;;;;12.86;100.00;101382.81;2614602;36;20050;-50
2022/09/18 06:40:40;;;;;;;5.65;1.27;;;;;;;12.78;100.00;101388.91;2614792;36;20034;-54
2022/09/18 06:43:11;;;;;;;6.75;1.13;;;;;;;12.84;100.00;101389.34;2615733;36;20023;-50
2022/09/18 06:45:39;;;;;;;5.68;1.35;;;;;;;12.79;100.00;101387.06;2614885;36;20046;-54
2022/09/18 06:48:08;;;;;;;4.25;1.00;;;;;;;12.75;100.00;101386.50;2615128;36;20420;-50
2022/09/18 06:50:36;;;;;;;2.85;1.20;;;;;;;12.81;100.00;101387.81;2615141;36;20061;-57
2022/09/18 06:53:05;;;;;;;7.75;2.22;;;;;;;12.85;100.00;101383.81;2615325;31;20455;-54
2022/09/18 06:55:33;;;;;;;6.00;1.58;;;;;;;12.89;100.00;101387.09;2613161;36;20089;-53
2022/09/18 06:58:02;;;;;;;7.88;1.20;;;;;;;12.74;100.00;101390.19;2615064;36;20057;-56
2022/09/18 07:00:33;;;;;;;7.47;1.80;;;;;;;12.69;100.00;101396.97;2614736;36;20034;-54
2022/09/18 07:03:03;;;;;;;3.30;0.90;;;;;;;12.70;100.00;101401.41;2615083;36;20038;-52
2022/09/18 07:05:32;;;;;;;3.28;1.02;;;;;;;12.83;100.00;101402.00;2615963;36;20045;-53
2022/09/18 07:08:01;;;;;;;4.15;1.10;;;;;;;12.90;100.00;101405.88;2614130;31;20034;-52
2022/09/18 07:10:29;;;;;;;4.65;1.10;;;;;;;12.87;100.00;101389.94;2615506;36;20022;-54
2022/09/18 07:12:58;;;;;;;3.83;1.10;;;;;;;12.82;100.00;101397.59;2614784;36;20042;-52
2022/09/18 07:15:28;;;;;;;3.67;0.90;;;;;;;12.74;100.00;101400.16;2615306;36;20050;-54
2022/09/18 07:18:00;;;;;;;1.83;0.80;;;;;;;12.81;100.00;101401.31;2614675;36;20575;-52
2022/09/18 07:20:29;;;;;;;2.40;0.70;;;;;;;12.83;100.00;101396.59;2615641;36;20041;-54
2022/09/18 07:23:00;;;;;;;2.20;0.90;;;;;;;12.88;100.00;101393.50;2615357;31;20034;-52
2022/09/18 07:25:30;;;;;;;3.05;0.90;;;;;;;12.93;100.00;101402.91;2615382;36;20089;-57
2022/09/18 07:28:04;;;;;;;4.65;0.95;;;;;;;12.91;100.00;101404.00;2612569;36;20544;-54
2022/09/18 07:30:32;;;;;;;5.00;1.20;;;;;;;12.91;100.00;101396.78;2614743;36;20038;-55
2022/09/18 07:33:04;;;;;;;5.63;1.20;;;;;;;13.03;100.00;101394.81;2613740;36;20034;-57
2022/09/18 07:35:32;;;;;;;3.13;1.20;;;;;;;13.12;100.00;101393.97;2614405;36;20057;-54
2022/09/18 07:38:01;;;;;;;3.45;1.00;;;;;;;13.11;100.00;101396.81;2613734;36;20035;-55
2022/09/18 07:40:30;;;;;;;3.33;0.90;;;;;;;13.17;100.00;101407.06;2614678;36;20023;-51
2022/09/18 07:43:01;;;;;;;4.25;1.10;;;;;;;13.10;100.00;101395.97;2615237;36;20447;-56
2022/09/18 07:45:30;;;;;;;6.65;0.85;;;;;;;13.17;100.00;101398.13;2615222;36;20038;-55
2022/09/18 07:47:58;;;;;;;6.10;0.75;;;;;;;13.15;100.00;101393.69;2613398;36;20037;-55
2022/09/18 07:50:32;;;;;;;4.68;0.80;;;;;;;13.25;100.00;101393.72;2615550;31;20408;-59
2022/09/18 07:53:04;;;;;;;4.10;0.85;;;;;;;13.23;100.00;101395.69;2615227;36;20030;-52
2022/09/18 07:55:33;;;;;;;2.42;0.90;;;;;;;13.31;100.00;101385.03;2613745;36;20609;-53
2022/09/18 07:58:03;;;;;;;;;;;;;;;13.48;100.00;101393.47;2614528;36;20038;-53
2022/09/18 08:00:34;;;;;;;2.90;0.80;;;;;;;13.20;100.00;101385.16;2615297;31;19939;-55
2022/09/18 08:03:04;;;;;;;5.70;0.77;;;;;;;13.30;100.00;101386.03;2606571;36;20414;-55
2022/09/18 08:05:34;;;;;;;;;;;;;;;13.52;100.00;101389.50;2611402;36;20034;-54
2022/09/18 08:08:07;;;;;;;1.25;0.70;;;;;;;13.60;100.00;101389.66;2611850;36;19961;-55
2022/09/18 08:10:36;;;;;;;4.60;1.00;;;;;;;13.63;100.00;101385.78;2611212;36;20038;-52
2022/09/18 08:13:05;;;;;;;7.32;1.02;;;;;;;13.64;100.00;101392.91;2611208;36;20038;-51
2022/09/18 08:15:35;;;;;;;2.78;1.00;;;;;;;13.54;100.00;101392.91;2611412;36;20138;-53
2022/09/18 08:18:04;;;;;;;4.97;1.10;;;;;;;13.70;100.00;101386.91;2612371;36;20440;-55
2022/09/18 08:20:35;;;;;;;3.97;0.90;;;;;;;13.61;100.00;101377.81;2612008;36;20057;-56
2022/09/18 08:23:04;;;;;;;4.20;0.73;;;;;;;13.69;100.00;101378.94;2603134;36;20504;-54
2022/09/18 08:25:32;;;;;;;;;;;;;;;13.78;100.00;101378.06;2613217;36;20034;-54
2022/09/18 08:28:02;;;;;;;4.50;1.87;;;;;;;13.71;100.00;101393.19;2612058;36;19954;-54
2022/09/18 08:30:31;;;;;;;4.18;0.90;;;;;;;13.64;100.00;101384.78;2612930;36;20027;-51
2022/09/18 08:33:00;;;;;;;2.58;1.10;;;;;;;13.75;100.00;101381.06;2613465;36;20035;-53
2022/09/18 08:35:29;;;;;;;2.20;0.80;;;;;;;13.77;100.00;101381.78;2612878;31;20038;-58
2022/09/18 08:38:00;;;;;;;4.20;1.02;;;;;;;13.73;100.00;101383.91;2614778;36;20133;-54
2022/09/18 08:40:45;;;;;;;4.45;1.00;;;;;;;13.69;100.00;101387.91;2613514;36;20058;-53
2022/09/18 08:43:21;;;;;;;5.18;0.90;;;;;;;13.88;100.00;101386.19;2615022;31;20041;-54
2022/09/18 08:45:59;;;;;;;4.10;1.50;;;;;;;13.83;100.00;101392.88;2613486;36;20042;-53
2022/09/18 08:48:30;;;;;;;2.00;0.95;;;;;;;13.91;100.00;101384.03;2614800;36;20185;-50
2022/09/18 08:51:03;;;;;;;6.68;1.63;;;;;;;13.96;100.00;101387.16;2614693;36;20038;-55
2022/09/18 08:53:37;;;;;;;2.67;1.13;;;;;;;13.86;100.00;101382.78;2608719;31;20544;-54
2022/09/18 08:56:10;;;;;;;4.53;1.08;;;;;;;14.01;100.00;101389.44;2613873;36;20045;-55
2022/09/18 08:58:46;;;;;;;3.83;0.90;;;;;;;13.97;100.00;101383.47;2614962;36;20039;-53
2022/09/18 09:01:19;;;;;;;7.80;1.42;;;;;;;14.00;100.00;101388.59;2614181;36;20439;-54
2022/09/18 09:03:56;;;;;;;3.03;0.90;;;;;;;14.08;100.00;101385.16;2614683;31;20030;-55
2022/09/18 09:06:51;;;;;;;5.47;0.85;;;;;;;14.28;100.00;101382.38;2615441;36;20037;-54
2022/09/18 09:09:33;;;;;;;5.07;1.33;;;;;;;14.32;100.00;101379.22;2613738;36;20030;-56
2022/09/18 09:12:09;;;;;;;4.65;1.10;;;;;;;14.25;100.00;101391.66;2612504;36;20554;-54
2022/09/18 09:14:51;;;;;;;5.15;0.90;;;;;;;14.24;100.00;101389.94;2615065;31;20034;-53
2022/09/18 09:17:26;;;;;;;2.83;0.80;;;;;;;14.24;100.00;101384.53;2613921;31;20038;-54
2022/09/18 09:19:56;;;;;;;3.58;1.00;;;;;;;14.08;100.00;101379.72;2613733;36;20034;-55
2022/09/18 09:22:35;;;;;;;6.15;1.17;;;;;;;14.15;100.00;101380.00;2611209;36;20042;-57
2022/09/18 09:25:18;;;;;;;5.82;1.00;;;;;;;14.19;100.00;101376.00;2610590;36;20045;-55
2022/09/18 09:27:51;;;;;;;7.15;1.10;;;;;;;14.45;100.00;101375.34;2611944;36;20034;-54
2022/09/18 09:30:22;;;;;;;5.20;1.17;;;;;;;14.36;100.00;101380.63;2611784;36;20027;-57
2022/09/18 09:32:57;;;;;;;4.40;1.17;;;;;;;14.23;100.00;101388.25;2613935;36;20023;-58
2022/09/18 09:35:31;;;;;;;4.93;1.00;;;;;;;14.44;100.00;101387.16;2615071;36;20041;-56
2022/09/18 09:38:05;;;;;;;2.90;0.80;;;;;;;14.31;100.00;101387.50;2615220;36;20030;-55
2022/09/18 09:40:42;;;;;;;2.85;0.90;;;;;;;14.45;100.00;101387.03;2615175;36;20070;-54
2022/09/18 09:43:20;;;;;;;4.13;0.90;;;;;;;14.48;100.00;101391.28;2615420;36;20026;-55
2022/09/18 09:45:50;;;;;;;5.97;1.00;;;;;;;14.47;100.00;101389.56;2615920;31;20027;-56
2022/09/18 09:48:26;;;;;;;5.28;0.88;;;;;;;14.74;100.00;101379.78;2614631;36;20034;-56
2022/09/18 09:50:59;;;;;;;2.60;1.38;;;;;;;14.76;100.00;101372.38;2614980;36;20065;-56
2022/09/18 09:53:29;;;;;;;3.60;1.00;;;;;;;14.83;100.00;101363.47;2614818;36;20023;-58
2022/09/18 09:56:09;;;;;;;1.35;0.63;;;;;;;14.79;100.00;101372.06;2615143;36;20030;-56
2022/09/18 09:58:46;;;;;;;3.15;0.77;;;;;;;14.82;100.00;101377.19;2616261;31;20701;-54
2022/09/18 10:01:20;;;;;;;2.90;0.70;;;;;;;14.66;100.00;101373.28;2614946;36;20030;-54
2022/09/18 10:04:00;;;;;;;3.28;0.95;;;;;;;14.78;100.00;101373.06;2614999;36;20049;-58
2022/09/18 10:06:40;;;;;;;2.25;0.80;;;;;;;14.90;100.00;101363.75;2615934;36;20026;-56
2022/09/18 10:09:17;;;;;;;2.53;1.08;;;;;;;15.02;100.00;101367.94;2613918;36;20057;-56
2022/09/18 10:11:56;;;;;;;9.07;6.60;;;;;;;14.83;100.00;101365.34;2615745;36;20038;-55
2022/09/18 10:14:28;;;;;;;7.88;4.15;;;;;;;14.70;100.00;101363.84;2614790;36;20027;-55
2022/09/18 10:16:58;;;;;;;4.05;2.10;;;;;;;14.66;100.00;101369.72;2614901;36;20035;-59
2022/09/18 10:19:35;;;;;;;2.40;1.25;;;;;;;14.53;100.00;101370.00;2615030;36;20089;-54
2022/09/18 10:22:07;;;;;;;2.10;1.52;;;;;;;14.26;100.00;101366.28;2616314;36;20035;-58
2022/09/18 10:24:45;;;;;;;1.42;0.60;;;;;;;14.23;100.00;101369.28;2614395;36;20034;-56
2022/09/18 10:27:17;;;;;;;3.08;0.75;;;;;;;14.23;100.00;101371.16;2614118;36;20134;-58
2022/09/18 10:29:47;;;;;;;1.73;0.52;;;;;;;14.13;100.00;101377.47;2614527;36;20048;-54
2022/09/18 10:32:33;;;;;;;5.00;0.93;;;;;;;14.11;100.00;101373.19;2615072;31;20042;-55
2022/09/18 10:35:02;;;;;;;4.72;0.60;;;;;;;14.10;100.00;101371.47;2615467;36;20034;-57
2022/09/18 10:37:42;;;;;;;5.72;0.80;;;;;;;14.13;100.00;101377.47;2615672;36;20030;-57
2022/09/18 10:40:31;;;;;;;3.47;0.60;;;;;;;14.13;100.00;101373.88;2615656;36;20059;-54
2022/09/18 10:43:03;;;;;;;2.22;0.85;;;;;;;14.23;100.00;101368.44;2615290;36;20030;-55
2022/09/18 10:45:39;;;;;;;1.23;0.73;;;;;;;14.29;100.00;101373.25;2615157;31;20053;-54
2022/09/18 10:48:13;;;;;;;1.98;0.70;;;;;;;14.42;100.00;101376.47;2615293;36;20042;-54
2022/09/18 10:50:52;;;;;;;2.08;0.60;;;;;;;14.31;100.00;101373.94;2612217;36;20023;-54
2022/09/18 10:53:31;;;;;;;3.70;0.90;;;;;;;14.45;100.00;101378.06;2615499;36;20037;-55
2022/09/18 10:56:05;;;;;;;3.00;1.03;;;;;;;14.32;100.00;101368.38;2615142;36;20027;-54
2022/09/18 10:58:36;;;;;;;4.45;1.73;;;;;;;14.53;100.00;101361.88;2615613;36;20331;-55
2022/09/18 11:01:07;;;;;;;4.05;0.77;;;;;;;14.54;100.00;101369.03;2613983;36;20447;-54
2022/09/18 11:03:41;;;;;;;7.53;1.08;;;;;;;14.42;100.00;101359.41;2614942;36;20423;-54
2022/09/18 11:06:16;;;;;;;3.42;0.98;;;;;;;14.51;100.00;101363.91;2614022;36;20022;-58
2022/09/18 11:08:49;;;;;;;4.40;0.80;;;;;;;14.23;100.00;101358.47;2611311;36;20038;-54
2022/09/18 11:11:25;;;;;;;5.20;1.10;;;;;;;14.44;100.00;101368.22;2610444;36;20049;-56
2022/09/18 11:14:00;;;;;;;2.00;0.80;;;;;;;14.47;100.00;101367.91;2610916;31;20073;-54
2022/09/18 11:16:31;;;;;;;4.28;0.85;;;;;;;14.49;100.00;101368.63;2605789;31;20030;-53
2022/09/18 11:19:09;;;;;;;3.92;1.23;;;;;;;14.63;100.00;101368.16;2610287;36;20581;-54
2022/09/18 11:21:45;;;;;;;4.57;1.13;;;;;;;14.42;100.00;101371.06;2612918;36;20393;-53
2022/09/18 11:24:21;;;;;;;3.17;0.85;;;;;;;14.45;100.00;101364.50;2612267;36;20034;-56
2022/09/18 11:26:53;;;;;;;3.60;0.90;;;;;;;14.58;100.00;101370.44;2609375;36;20045;-56
2022/09/18 11:29:30;;;;;;;3.70;1.15;;;;;;;14.46;100.00;101377.06;2612694;36;20034;-51
2022/09/18 11:32:03;;;;;;;3.22;0.98;;;;;;;14.65;100.00;101363.44;2613597;36;20439;-54
2022/09/18 11:34:34;;;;;;;2.88;1.20;;;;;;;14.56;100.00;101361.63;2612881;31;20561;-54
2022/09/18 11:37:07;;;;;;;1.67;0.70;;;;;;;14.67;100.00;101364.13;2614346;36;20055;-54
2022/09/18 11:39:39;;;;;;;3.80;1.17;;;;;;;14.83;100.00;101359.94;2611414;36;20061;-50
2022/09/18 11:42:14;;;;;;;2.55;0.88;;;;;;;14.87;100.00;101353.22;2611497;36;20550;-54